sensor_id;sensor_type;location;lat;lon;timestamp;temperature;humidity
13684;DHT22;6914;53.552;9.908;2022-10-03T00:02:17;11.00;99.90
13684;DHT22;6914;53.552;9.908;2022-10-03T00:05:13;11.00;99.90
13684;DHT22;6914;53.552;9.908;2022-10-03T00:08:02;10.90;99.90
13684;DHT22;6914;53.552;9.908;2022-10-03T00:10:40;10.90;99.90
13684;DHT22;6914;53.552;9.908;2022-10-03T00:13:19;11.00;99.90
13684;DHT22;6914;53.552;9.908;2022-10-03T00:15:54;11.00;99.90
13684;DHT22;6914;53.552;9.908;2022-10-03T00:18:37;10.90;99.90
13684;DHT22;6914;53.552;9.908;2022-10-03T00:21:20;11.00;99.90
13684;DHT22;6914;53.552;9.908;2022-10-03T00:23:56;11.10;99.90
13684;DHT22;6914;53.552;9.908;2022-10-03T00:26:38;11.10;99.90
13684;DHT22;6914;53.552;9.908;2022-10-03T00:29:38;11.20;99.90
13684;DHT22;6914;53.552;9.908;2022-10-03T00:35:04;11.20;99.90
13684;DHT22;6914;53.552;9.908;2022-10-03T00:37:44;11.20;99.90
13684;DHT22;6914;53.552;9.908;2022-10-03T00:40:55;11.30;99.90
13684;DHT22;6914;53.552;9.908;2022-10-03T00:44:08;11.40;99.90
13684;DHT22;6914;53.552;9.908;2022-10-03T00:46:56;11.50;99.90
13684;DHT22;6914;53.552;9.908;2022-10-03T00:55:17;11.60;99.90
13684;DHT22;6914;53.552;9.908;2022-10-03T00:58:12;11.60;99.90
13684;DHT22;6914;53.552;9.908;2022-10-03T01:00:49;11.70;99.90
13684;DHT22;6914;53.552;9.908;2022-10-03T01:03:39;11.70;99.90
13684;DHT22;6914;53.552;9.908;2022-10-03T01:06:20;11.60;99.90
13684;DHT22;6914;53.552;9.908;2022-10-03T01:09:05;11.60;99.90
13684;DHT22;6914;53.552;9.908;2022-10-03T01:11:44;11.60;99.90
13684;DHT22;6914;53.552;9.908;2022-10-03T01:14:22;11.60;99.90
13684;DHT22;6914;53.552;9.908;2022-10-03T01:17:01;11.60;99.90
13684;DHT22;6914;53.552;9.908;2022-10-03T01:25:18;11.60;99.90
13684;DHT22;6914;53.552;9.908;2022-10-03T01:27:57;11.60;99.90
13684;DHT22;6914;53.552;9.908;2022-10-03T01:30:50;11.60;99.90
13684;DHT22;6914;53.552;9.908;2022-10-03T01:33:24;11.60;99.90
13684;DHT22;6914;53.552;9.908;2022-10-03T01:35:58;11.60;99.90
13684;DHT22;6914;53.552;9.908;2022-10-03T01:38:33;11.60;99.90
13684;DHT22;6914;53.552;9.908;2022-10-03T01:41:08;11.50;99.90
13684;DHT22;6914;53.552;9.908;2022-10-03T01:43:43;11.50;99.90
13684;DHT22;6914;53.552;9.908;2022-10-03T01:46:20;11.40;99.90
13684;DHT22;6914;53.552;9.908;2022-10-03T01:48:54;11.40;99.90
13684;DHT22;6914;53.552;9.908;2022-10-03T01:51:29;11.30;99.90
13684;DHT22;6914;53.552;9.908;2022-10-03T01:54:05;11.20;99.90
13684;DHT22;6914;53.552;9.908;2022-10-03T01:56:38;11.10;99.90
13684;DHT22;6914;53.552;9.908;2022-10-03T01:59:11;11.10;99.90
13684;DHT22;6914;53.552;9.908;2022-10-03T02:01:48;11.10;99.90
13684;DHT22;6914;53.552;9.908;2022-10-03T02:04:25;11.00;99.90
13684;DHT22;6914;53.552;9.908;2022-10-03T02:07:03;11.00;99.90
13684;DHT22;6914;53.552;9.908;2022-10-03T02:09:40;11.00;99.90
13684;DHT22;6914;53.552;9.908;2022-10-03T02:12:14;11.00;99.90
13684;DHT22;6914;53.552;9.908;2022-10-03T02:14:53;11.00;99.90
13684;DHT22;6914;53.552;9.908;2022-10-03T02:17:33;10.90;99.90
13684;DHT22;6914;53.552;9.908;2022-10-03T02:20:17;10.90;99.90
13684;DHT22;6914;53.552;9.908;2022-10-03T02:22:52;10.90;99.90
13684;DHT22;6914;53.552;9.908;2022-10-03T02:25:24;11.00;99.90
13684;DHT22;6914;53.552;9.908;2022-10-03T02:28:27;10.90;99.90
13684;DHT22;6914;53.552;9.908;2022-10-03T02:31:40;10.90;99.90
13684;DHT22;6914;53.552;9.908;2022-10-03T02:34:55;10.90;99.90
13684;DHT22;6914;53.552;9.908;2022-10-03T02:37:50;11.00;99.90
13684;DHT22;6914;53.552;9.908;2022-10-03T02:50:16;10.70;99.90
13684;DHT22;6914;53.552;9.908;2022-10-03T02:59:42;10.50;99.90
13684;DHT22;6914;53.552;9.908;2022-10-03T03:03:00;10.50;99.90
13684;DHT22;6914;53.552;9.908;2022-10-03T03:09:06;10.50;99.90
13684;DHT22;6914;53.552;9.908;2022-10-03T03:12:01;10.40;99.90
13684;DHT22;6914;53.552;9.908;2022-10-03T03:17:48;10.40;99.90
13684;DHT22;6914;53.552;9.908;2022-10-03T03:20:31;10.40;99.90
13684;DHT22;6914;53.552;9.908;2022-10-03T03:23:24;10.40;99.90
13684;DHT22;6914;53.552;9.908;2022-10-03T03:26:24;10.40;99.90
13684;DHT22;6914;53.552;9.908;2022-10-03T03:29:05;10.40;99.90
13684;DHT22;6914;53.552;9.908;2022-10-03T03:31:39;10.40;99.90
13684;DHT22;6914;53.552;9.908;2022-10-03T03:34:15;10.40;99.90
13684;DHT22;6914;53.552;9.908;2022-10-03T03:36:52;10.40;99.90
13684;DHT22;6914;53.552;9.908;2022-10-03T03:39:34;10.30;99.90
13684;DHT22;6914;53.552;9.908;2022-10-03T03:42:27;10.30;99.90
13684;DHT22;6914;53.552;9.908;2022-10-03T03:45:07;10.30;99.90
13684;DHT22;6914;53.552;9.908;2022-10-03T03:47:54;10.30;99.90
13684;DHT22;6914;53.552;9.908;2022-10-03T03:50:32;10.30;99.90
13684;DHT22;6914;53.552;9.908;2022-10-03T03:56:24;10.30;99.90
13684;DHT22;6914;53.552;9.908;2022-10-03T03:59:03;10.30;99.90
13684;DHT22;6914;53.552;9.908;2022-10-03T04:01:52;10.20;99.90
13684;DHT22;6914;53.552;9.908;2022-10-03T04:04:34;10.10;99.90
13684;DHT22;6914;53.552;9.908;2022-10-03T04:07:15;10.10;99.90
13684;DHT22;6914;53.552;9.908;2022-10-03T04:10:06;10.10;99.90
13684;DHT22;6914;53.552;9.908;2022-10-03T04:12:52;10.10;99.90
13684;DHT22;6914;53.552;9.908;2022-10-03T04:15:35;10.10;99.90
13684;DHT22;6914;53.552;9.908;2022-10-03T04:18:29;10.10;99.90
13684;DHT22;6914;53.552;9.908;2022-10-03T04:24:40;10.00;99.90
13684;DHT22;6914;53.552;9.908;2022-10-03T04:27:34;10.00;99.90
13684;DHT22;6914;53.552;9.908;2022-10-03T04:30:08;10.10;99.90
13684;DHT22;6914;53.552;9.908;2022-10-03T04:33:01;10.00;99.90
13684;DHT22;6914;53.552;9.908;2022-10-03T04:38:54;10.00;99.90
13684;DHT22;6914;53.552;9.908;2022-10-03T04:41:33;10.00;99.90
13684;DHT22;6914;53.552;9.908;2022-10-03T04:44:10;9.90;99.90
13684;DHT22;6914;53.552;9.908;2022-10-03T04:46:47;9.80;99.90
13684;DHT22;6914;53.552;9.908;2022-10-03T04:49:23;9.90;99.90
13684;DHT22;6914;53.552;9.908;2022-10-03T04:51:59;9.80;99.90
13684;DHT22;6914;53.552;9.908;2022-10-03T04:54:34;9.80;99.90
13684;DHT22;6914;53.552;9.908;2022-10-03T04:57:20;9.80;99.90
13684;DHT22;6914;53.552;9.908;2022-10-03T04:59:53;9.80;99.90
13684;DHT22;6914;53.552;9.908;2022-10-03T05:02:31;9.80;99.90
13684;DHT22;6914;53.552;9.908;2022-10-03T05:05:26;9.70;99.90
13684;DHT22;6914;53.552;9.908;2022-10-03T05:08:03;9.70;99.90
13684;DHT22;6914;53.552;9.908;2022-10-03T05:10:56;9.80;99.90
13684;DHT22;6914;53.552;9.908;2022-10-03T05:13:34;9.80;99.90
13684;DHT22;6914;53.552;9.908;2022-10-03T05:16:08;9.90;99.90
13684;DHT22;6914;53.552;9.908;2022-10-03T05:18:45;9.90;99.90
13684;DHT22;6914;53.552;9.908;2022-10-03T05:21:23;9.90;99.90
13684;DHT22;6914;53.552;9.908;2022-10-03T05:24:00;10.00;99.90
13684;DHT22;6914;53.552;9.908;2022-10-03T05:26:38;9.90;99.90
13684;DHT22;6914;53.552;9.908;2022-10-03T05:29:14;9.90;99.90
13684;DHT22;6914;53.552;9.908;2022-10-03T05:31:49;9.90;99.90
13684;DHT22;6914;53.552;9.908;2022-10-03T05:34:31;9.90;99.90
13684;DHT22;6914;53.552;9.908;2022-10-03T05:40:13;10.00;99.90
13684;DHT22;6914;53.552;9.908;2022-10-03T05:42:59;10.00;99.90
13684;DHT22;6914;53.552;9.908;2022-10-03T05:45:30;10.00;99.90
13684;DHT22;6914;53.552;9.908;2022-10-03T05:48:14;10.10;99.90
13684;DHT22;6914;53.552;9.908;2022-10-03T06:00:17;10.10;99.90
13684;DHT22;6914;53.552;9.908;2022-10-03T06:03:05;10.20;99.90
13684;DHT22;6914;53.552;9.908;2022-10-03T06:05:50;10.20;99.90
13684;DHT22;6914;53.552;9.908;2022-10-03T06:08:43;10.20;99.90
13684;DHT22;6914;53.552;9.908;2022-10-03T06:11:27;10.20;99.90
13684;DHT22;6914;53.552;9.908;2022-10-03T06:14:19;10.10;99.90
13684;DHT22;6914;53.552;9.908;2022-10-03T06:16:58;10.20;99.90
13684;DHT22;6914;53.552;9.908;2022-10-03T06:19:46;10.30;99.90
13684;DHT22;6914;53.552;9.908;2022-10-03T06:26:13;10.40;99.90
13684;DHT22;6914;53.552;9.908;2022-10-03T06:29:16;10.40;99.90
13684;DHT22;6914;53.552;9.908;2022-10-03T06:35:31;10.60;99.90
13684;DHT22;6914;53.552;9.908;2022-10-03T06:38:38;10.60;99.90
13684;DHT22;6914;53.552;9.908;2022-10-03T06:44:34;10.90;99.90
13684;DHT22;6914;53.552;9.908;2022-10-03T06:47:23;11.00;99.90
13684;DHT22;6914;53.552;9.908;2022-10-03T06:50:13;11.00;99.90
13684;DHT22;6914;53.552;9.908;2022-10-03T06:56:11;11.20;99.90
13684;DHT22;6914;53.552;9.908;2022-10-03T06:58:57;11.30;99.90
13684;DHT22;6914;53.552;9.908;2022-10-03T07:02:17;11.50;99.90
13684;DHT22;6914;53.552;9.908;2022-10-03T07:11:03;11.80;99.90
13684;DHT22;6914;53.552;9.908;2022-10-03T07:16:46;11.90;99.90
13684;DHT22;6914;53.552;9.908;2022-10-03T07:19:27;12.00;99.90
13684;DHT22;6914;53.552;9.908;2022-10-03T07:22:24;12.00;99.90
13684;DHT22;6914;53.552;9.908;2022-10-03T07:28:29;12.10;99.90
13684;DHT22;6914;53.552;9.908;2022-10-03T07:31:07;12.10;99.90
13684;DHT22;6914;53.552;9.908;2022-10-03T07:34:12;12.10;99.90
13684;DHT22;6914;53.552;9.908;2022-10-03T07:37:08;12.20;99.90
13684;DHT22;6914;53.552;9.908;2022-10-03T07:40:22;12.30;99.90
13684;DHT22;6914;53.552;9.908;2022-10-03T07:43:16;12.30;99.90
13684;DHT22;6914;53.552;9.908;2022-10-03T07:46:10;12.50;99.90
13684;DHT22;6914;53.552;9.908;2022-10-03T07:48:59;12.60;99.90
13684;DHT22;6914;53.552;9.908;2022-10-03T07:51:35;12.80;99.90
13684;DHT22;6914;53.552;9.908;2022-10-03T07:54:48;13.00;99.90
13684;DHT22;6914;53.552;9.908;2022-10-03T07:57:36;13.20;99.90
13684;DHT22;6914;53.552;9.908;2022-10-03T08:00:16;13.30;99.90
13684;DHT22;6914;53.552;9.908;2022-10-03T08:06:17;13.50;99.90
13684;DHT22;6914;53.552;9.908;2022-10-03T08:15:12;13.80;99.90
13684;DHT22;6914;53.552;9.908;2022-10-03T08:20:59;14.30;99.90
13684;DHT22;6914;53.552;9.908;2022-10-03T08:26:35;15.40;99.90
13684;DHT22;6914;53.552;9.908;2022-10-03T08:29:21;16.20;99.90
13684;DHT22;6914;53.552;9.908;2022-10-03T08:32:29;17.00;99.90
13684;DHT22;6914;53.552;9.908;2022-10-03T08:35:26;17.90;99.90
13684;DHT22;6914;53.552;9.908;2022-10-03T08:38:47;19.10;99.90
13684;DHT22;6914;53.552;9.908;2022-10-03T08:50:53;19.00;99.90
13684;DHT22;6914;53.552;9.908;2022-10-03T08:56:45;17.40;99.90
13684;DHT22;6914;53.552;9.908;2022-10-03T08:59:57;16.80;99.90
13684;DHT22;6914;53.552;9.908;2022-10-03T09:08:49;16.20;99.90
13684;DHT22;6914;53.552;9.908;2022-10-03T09:11:49;16.60;99.90
13684;DHT22;6914;53.552;9.908;2022-10-03T09:20:49;17.60;99.90
13684;DHT22;6914;53.552;9.908;2022-10-03T09:23:48;17.60;99.90
13684;DHT22;6914;53.552;9.908;2022-10-03T09:36:35;17.50;99.90
13684;DHT22;6914;53.552;9.908;2022-10-03T09:39:38;17.70;99.90
13684;DHT22;6914;53.552;9.908;2022-10-03T09:46:07;17.70;99.90
13684;DHT22;6914;53.552;9.908;2022-10-03T09:48:58;17.50;99.90
13684;DHT22;6914;53.552;9.908;2022-10-03T09:51:44;17.40;99.90
13684;DHT22;6914;53.552;9.908;2022-10-03T09:54:32;17.00;99.90
13684;DHT22;6914;53.552;9.908;2022-10-03T09:57:16;16.80;99.90
13684;DHT22;6914;53.552;9.908;2022-10-03T10:27:36;17.80;99.90
13684;DHT22;6914;53.552;9.908;2022-10-03T10:30:20;17.20;99.90
13684;DHT22;6914;53.552;9.908;2022-10-03T10:39:24;20.30;99.90
13684;DHT22;6914;53.552;9.908;2022-10-03T10:45:36;22.00;99.90
13684;DHT22;6914;53.552;9.908;2022-10-03T10:51:43;23.00;99.90
13684;DHT22;6914;53.552;9.908;2022-10-03T10:57:28;22.20;99.90
13684;DHT22;6914;53.552;9.908;2022-10-03T11:00:23;22.00;99.90
13684;DHT22;6914;53.552;9.908;2022-10-03T11:03:39;21.40;99.90
13684;DHT22;6914;53.552;9.908;2022-10-03T11:06:51;21.00;99.90
13684;DHT22;6914;53.552;9.908;2022-10-03T11:13:23;19.80;99.90
13684;DHT22;6914;53.552;9.908;2022-10-03T11:16:39;19.70;99.90
13684;DHT22;6914;53.552;9.908;2022-10-03T11:20:01;19.00;99.90
13684;DHT22;6914;53.552;9.908;2022-10-03T11:26:08;18.40;99.90
13684;DHT22;6914;53.552;9.908;2022-10-03T11:35:20;17.60;99.90
13684;DHT22;6914;53.552;9.908;2022-10-03T11:37:57;17.40;99.90
13684;DHT22;6914;53.552;9.908;2022-10-03T11:40:36;17.20;99.90
13684;DHT22;6914;53.552;9.908;2022-10-03T11:43:34;16.70;99.90
13684;DHT22;6914;53.552;9.908;2022-10-03T11:46:19;16.30;99.90
13684;DHT22;6914;53.552;9.908;2022-10-03T11:48:54;15.80;99.90
13684;DHT22;6914;53.552;9.908;2022-10-03T11:51:35;15.60;99.90
13684;DHT22;6914;53.552;9.908;2022-10-03T11:54:15;15.60;99.90
13684;DHT22;6914;53.552;9.908;2022-10-03T11:56:48;15.50;99.90
13684;DHT22;6914;53.552;9.908;2022-10-03T11:59:45;15.50;99.90
13684;DHT22;6914;53.552;9.908;2022-10-03T12:02:32;15.50;99.90
13684;DHT22;6914;53.552;9.908;2022-10-03T12:05:10;15.50;99.90
13684;DHT22;6914;53.552;9.908;2022-10-03T12:07:44;15.50;99.90
13684;DHT22;6914;53.552;9.908;2022-10-03T12:10:36;15.50;99.90
13684;DHT22;6914;53.552;9.908;2022-10-03T12:13:10;15.50;99.90
13684;DHT22;6914;53.552;9.908;2022-10-03T12:15:42;15.60;99.90
13684;DHT22;6914;53.552;9.908;2022-10-03T12:18:15;15.70;99.90
13684;DHT22;6914;53.552;9.908;2022-10-03T12:21:08;15.60;99.90
13684;DHT22;6914;53.552;9.908;2022-10-03T12:24:01;15.60;99.90
13684;DHT22;6914;53.552;9.908;2022-10-03T12:26:39;15.60;99.90
13684;DHT22;6914;53.552;9.908;2022-10-03T12:29:11;15.70;99.90
13684;DHT22;6914;53.552;9.908;2022-10-03T12:31:42;15.80;99.90
13684;DHT22;6914;53.552;9.908;2022-10-03T12:34:26;15.80;99.90
13684;DHT22;6914;53.552;9.908;2022-10-03T12:37:10;15.70;99.90
13684;DHT22;6914;53.552;9.908;2022-10-03T12:39:52;15.50;99.90
13684;DHT22;6914;53.552;9.908;2022-10-03T12:42:26;15.40;99.90
13684;DHT22;6914;53.552;9.908;2022-10-03T12:44:57;15.50;99.90
13684;DHT22;6914;53.552;9.908;2022-10-03T12:47:31;15.60;99.90
13684;DHT22;6914;53.552;9.908;2022-10-03T12:50:09;15.50;99.90
13684;DHT22;6914;53.552;9.908;2022-10-03T12:52:44;15.50;99.90
13684;DHT22;6914;53.552;9.908;2022-10-03T12:55:23;15.60;99.90
13684;DHT22;6914;53.552;9.908;2022-10-03T12:57:56;15.60;99.90
13684;DHT22;6914;53.552;9.908;2022-10-03T13:00:28;15.50;99.90
13684;DHT22;6914;53.552;9.908;2022-10-03T13:03:16;15.50;99.90
13684;DHT22;6914;53.552;9.908;2022-10-03T13:06:23;15.60;99.90
13684;DHT22;6914;53.552;9.908;2022-10-03T13:09:07;15.60;99.90
13684;DHT22;6914;53.552;9.908;2022-10-03T13:11:41;15.70;99.90
13684;DHT22;6914;53.552;9.908;2022-10-03T13:14:24;15.80;99.90
13684;DHT22;6914;53.552;9.908;2022-10-03T13:17:00;15.90;99.90
13684;DHT22;6914;53.552;9.908;2022-10-03T13:19:38;16.00;99.90
13684;DHT22;6914;53.552;9.908;2022-10-03T13:22:24;16.10;99.90
13684;DHT22;6914;53.552;9.908;2022-10-03T13:25:01;16.20;99.90
13684;DHT22;6914;53.552;9.908;2022-10-03T13:27:39;16.40;99.90
13684;DHT22;6914;53.552;9.908;2022-10-03T13:30:17;16.30;99.90
13684;DHT22;6914;53.552;9.908;2022-10-03T13:32:49;16.20;99.90
13684;DHT22;6914;53.552;9.908;2022-10-03T13:35:21;16.20;99.90
13684;DHT22;6914;53.552;9.908;2022-10-03T13:41:33;16.30;99.90
13684;DHT22;6914;53.552;9.908;2022-10-03T13:44:12;16.40;99.90
13684;DHT22;6914;53.552;9.908;2022-10-03T13:46:44;16.40;99.90
13684;DHT22;6914;53.552;9.908;2022-10-03T13:49:24;16.40;99.90
13684;DHT22;6914;53.552;9.908;2022-10-03T13:52:00;16.70;99.90
13684;DHT22;6914;53.552;9.908;2022-10-03T13:57:33;17.20;99.90
13684;DHT22;6914;53.552;9.908;2022-10-03T14:00:05;17.30;99.90
13684;DHT22;6914;53.552;9.908;2022-10-03T14:02:45;17.10;99.90
13684;DHT22;6914;53.552;9.908;2022-10-03T14:05:35;17.00;99.90
13684;DHT22;6914;53.552;9.908;2022-10-03T14:08:11;16.90;99.90
13684;DHT22;6914;53.552;9.908;2022-10-03T14:11:24;17.00;99.90
13684;DHT22;6914;53.552;9.908;2022-10-03T14:14:16;17.10;99.90
13684;DHT22;6914;53.552;9.908;2022-10-03T14:16:56;17.10;99.90
13684;DHT22;6914;53.552;9.908;2022-10-03T14:19:32;17.00;99.90
13684;DHT22;6914;53.552;9.908;2022-10-03T14:22:12;16.80;99.90
13684;DHT22;6914;53.552;9.908;2022-10-03T14:24:58;16.50;99.90
13684;DHT22;6914;53.552;9.908;2022-10-03T14:27:44;16.00;99.90
13684;DHT22;6914;53.552;9.908;2022-10-03T14:30:16;15.70;99.90
13684;DHT22;6914;53.552;9.908;2022-10-03T14:33:05;15.60;99.90
13684;DHT22;6914;53.552;9.908;2022-10-03T14:35:44;15.60;99.90
13684;DHT22;6914;53.552;9.908;2022-10-03T14:38:37;15.60;99.90
13684;DHT22;6914;53.552;9.908;2022-10-03T14:41:29;15.60;99.90
13684;DHT22;6914;53.552;9.908;2022-10-03T14:44:04;15.70;99.90
13684;DHT22;6914;53.552;9.908;2022-10-03T14:46:40;15.70;99.90
13684;DHT22;6914;53.552;9.908;2022-10-03T14:49:16;15.60;99.90
13684;DHT22;6914;53.552;9.908;2022-10-03T14:51:48;15.60;99.90
13684;DHT22;6914;53.552;9.908;2022-10-03T14:54:19;15.60;99.90
13684;DHT22;6914;53.552;9.908;2022-10-03T14:56:48;15.60;99.90
13684;DHT22;6914;53.552;9.908;2022-10-03T14:59:19;15.60;99.90
13684;DHT22;6914;53.552;9.908;2022-10-03T15:01:53;15.60;99.90
13684;DHT22;6914;53.552;9.908;2022-10-03T15:04:26;15.70;99.90
13684;DHT22;6914;53.552;9.908;2022-10-03T15:06:55;15.70;99.90
13684;DHT22;6914;53.552;9.908;2022-10-03T15:09:29;15.70;99.90
13684;DHT22;6914;53.552;9.908;2022-10-03T15:12:03;15.70;99.90
13684;DHT22;6914;53.552;9.908;2022-10-03T15:14:34;15.50;99.90
13684;DHT22;6914;53.552;9.908;2022-10-03T15:17:14;15.60;99.90
13684;DHT22;6914;53.552;9.908;2022-10-03T15:19:45;15.50;99.90
13684;DHT22;6914;53.552;9.908;2022-10-03T15:22:28;15.60;99.90
13684;DHT22;6914;53.552;9.908;2022-10-03T15:25:02;15.50;99.90
13684;DHT22;6914;53.552;9.908;2022-10-03T15:27:31;15.50;99.90
13684;DHT22;6914;53.552;9.908;2022-10-03T15:30:02;15.50;99.90
13684;DHT22;6914;53.552;9.908;2022-10-03T15:32:35;15.50;99.90
13684;DHT22;6914;53.552;9.908;2022-10-03T15:35:05;15.50;99.90
13684;DHT22;6914;53.552;9.908;2022-10-03T15:37:35;15.50;99.90
13684;DHT22;6914;53.552;9.908;2022-10-03T15:40:07;15.50;99.90
13684;DHT22;6914;53.552;9.908;2022-10-03T15:42:48;15.50;99.90
13684;DHT22;6914;53.552;9.908;2022-10-03T15:45:22;15.50;99.90
13684;DHT22;6914;53.552;9.908;2022-10-03T15:47:55;15.50;99.90
13684;DHT22;6914;53.552;9.908;2022-10-03T15:50:25;15.50;99.90
13684;DHT22;6914;53.552;9.908;2022-10-03T15:52:55;15.50;99.90
13684;DHT22;6914;53.552;9.908;2022-10-03T15:55:25;15.40;99.90
13684;DHT22;6914;53.552;9.908;2022-10-03T15:58:00;15.40;99.90
13684;DHT22;6914;53.552;9.908;2022-10-03T16:00:29;15.40;99.90
13684;DHT22;6914;53.552;9.908;2022-10-03T16:03:07;15.30;99.90
13684;DHT22;6914;53.552;9.908;2022-10-03T16:05:36;15.30;99.90
13684;DHT22;6914;53.552;9.908;2022-10-03T16:08:10;16.30;99.90
13684;DHT22;6914;53.552;9.908;2022-10-03T16:10:45;15.40;99.90
13684;DHT22;6914;53.552;9.908;2022-10-03T16:13:23;15.40;99.90
13684;DHT22;6914;53.552;9.908;2022-10-03T16:16:18;15.40;99.90
13684;DHT22;6914;53.552;9.908;2022-10-03T16:18:54;15.30;99.90
13684;DHT22;6914;53.552;9.908;2022-10-03T16:21:43;15.20;99.90
13684;DHT22;6914;53.552;9.908;2022-10-03T16:24:20;15.10;99.90
13684;DHT22;6914;53.552;9.908;2022-10-03T16:26:51;15.00;99.90
13684;DHT22;6914;53.552;9.908;2022-10-03T16:29:20;15.20;99.90
13684;DHT22;6914;53.552;9.908;2022-10-03T16:31:51;14.80;99.90
13684;DHT22;6914;53.552;9.908;2022-10-03T16:34:24;14.80;99.90
13684;DHT22;6914;53.552;9.908;2022-10-03T16:36:54;14.70;99.90
13684;DHT22;6914;53.552;9.908;2022-10-03T16:39:31;14.70;99.90
13684;DHT22;6914;53.552;9.908;2022-10-03T16:42:18;13.60;99.90
13684;DHT22;6914;53.552;9.908;2022-10-03T16:44:58;14.60;99.90
13684;DHT22;6914;53.552;9.908;2022-10-03T16:47:35;14.50;99.90
13684;DHT22;6914;53.552;9.908;2022-10-03T16:50:19;14.50;99.90
13684;DHT22;6914;53.552;9.908;2022-10-03T16:52:54;14.40;99.90
13684;DHT22;6914;53.552;9.908;2022-10-03T16:55:27;14.40;99.90
13684;DHT22;6914;53.552;9.908;2022-10-03T16:57:57;14.30;99.90
13684;DHT22;6914;53.552;9.908;2022-10-03T17:00:33;14.30;99.90
13684;DHT22;6914;53.552;9.908;2022-10-03T17:03:15;14.90;99.90
13684;DHT22;6914;53.552;9.908;2022-10-03T17:05:46;11.20;99.90
13684;DHT22;6914;53.552;9.908;2022-10-03T17:08:17;14.10;99.90
13684;DHT22;6914;53.552;9.908;2022-10-03T17:10:52;14.10;99.90
13684;DHT22;6914;53.552;9.908;2022-10-03T17:13:36;14.10;99.90
13684;DHT22;6914;53.552;9.908;2022-10-03T17:16:10;15.50;99.90
13684;DHT22;6914;53.552;9.908;2022-10-03T17:18:40;14.00;99.90
13684;DHT22;6914;53.552;9.908;2022-10-03T17:21:21;15.00;99.90
13684;DHT22;6914;53.552;9.908;2022-10-03T17:23:55;12.80;99.90
13684;DHT22;6914;53.552;9.908;2022-10-03T17:26:32;13.90;99.90
13684;DHT22;6914;53.552;9.908;2022-10-03T17:29:09;16.10;99.90
13684;DHT22;6914;53.552;9.908;2022-10-03T17:31:43;12.80;99.90
13684;DHT22;6914;53.552;9.908;2022-10-03T17:34:14;13.80;99.90
13684;DHT22;6914;53.552;9.908;2022-10-03T17:36:52;13.10;99.90
13684;DHT22;6914;53.552;9.908;2022-10-03T17:39:36;14.70;99.90
13684;DHT22;6914;53.552;9.908;2022-10-03T17:42:08;13.70;99.90
13684;DHT22;6914;53.552;9.908;2022-10-03T17:44:51;13.70;99.90
13684;DHT22;6914;53.552;9.908;2022-10-03T17:47:22;13.50;99.90
13684;DHT22;6914;53.552;9.908;2022-10-03T17:49:57;13.60;99.90
13684;DHT22;6914;53.552;9.908;2022-10-03T17:52:29;15.40;99.90
13684;DHT22;6914;53.552;9.908;2022-10-03T17:54:57;13.50;99.90
13684;DHT22;6914;53.552;9.908;2022-10-03T17:57:28;13.40;99.90
13684;DHT22;6914;53.552;9.908;2022-10-03T18:00:00;13.50;99.90
13684;DHT22;6914;53.552;9.908;2022-10-03T18:02:35;13.50;99.90
13684;DHT22;6914;53.552;9.908;2022-10-03T18:05:11;13.40;99.90
13684;DHT22;6914;53.552;9.908;2022-10-03T18:07:41;13.40;99.90
13684;DHT22;6914;53.552;9.908;2022-10-03T18:10:18;13.40;99.90
13684;DHT22;6914;53.552;9.908;2022-10-03T18:12:50;13.30;99.90
13684;DHT22;6914;53.552;9.908;2022-10-03T18:18:47;14.40;99.90
13684;DHT22;6914;53.552;9.908;2022-10-03T18:21:31;13.30;99.90
13684;DHT22;6914;53.552;9.908;2022-10-03T18:27:38;13.20;99.90
13684;DHT22;6914;53.552;9.908;2022-10-03T18:30:14;13.20;99.90
13684;DHT22;6914;53.552;9.908;2022-10-03T18:32:43;13.10;99.90
13684;DHT22;6914;53.552;9.908;2022-10-03T18:35:14;13.10;99.90
13684;DHT22;6914;53.552;9.908;2022-10-03T18:38:00;13.10;99.90
13684;DHT22;6914;53.552;9.908;2022-10-03T18:40:32;15.00;99.90
13684;DHT22;6914;53.552;9.908;2022-10-03T18:43:05;12.00;99.90
13684;DHT22;6914;53.552;9.908;2022-10-03T18:45:36;13.00;99.90
13684;DHT22;6914;53.552;9.908;2022-10-03T18:48:25;13.00;99.90
13684;DHT22;6914;53.552;9.908;2022-10-03T18:50:57;14.40;99.90
13684;DHT22;6914;53.552;9.908;2022-10-03T18:53:32;12.80;99.90
13684;DHT22;6914;53.552;9.908;2022-10-03T18:56:02;12.90;99.90
13684;DHT22;6914;53.552;9.908;2022-10-03T18:58:34;12.90;99.90
13684;DHT22;6914;53.552;9.908;2022-10-03T19:01:04;12.60;99.90
13684;DHT22;6914;53.552;9.908;2022-10-03T19:03:38;13.60;99.90
13684;DHT22;6914;53.552;9.908;2022-10-03T19:06:14;12.80;99.90
13684;DHT22;6914;53.552;9.908;2022-10-03T19:08:48;12.80;99.90
13684;DHT22;6914;53.552;9.908;2022-10-03T19:11:20;12.80;99.90
13684;DHT22;6914;53.552;9.908;2022-10-03T19:13:57;12.70;99.90
13684;DHT22;6914;53.552;9.908;2022-10-03T19:16:54;12.70;99.90
13684;DHT22;6914;53.552;9.908;2022-10-03T19:19:27;12.70;99.90
13684;DHT22;6914;53.552;9.908;2022-10-03T19:22:02;13.80;99.90
13684;DHT22;6914;53.552;9.908;2022-10-03T19:24:32;12.50;99.90
13684;DHT22;6914;53.552;9.908;2022-10-03T19:27:03;12.50;99.90
13684;DHT22;6914;53.552;9.908;2022-10-03T19:29:39;12.50;99.90
13684;DHT22;6914;53.552;9.908;2022-10-03T19:32:17;12.40;99.90
13684;DHT22;6914;53.552;9.908;2022-10-03T19:34:56;12.40;99.90
13684;DHT22;6914;53.552;9.908;2022-10-03T19:37:37;12.40;99.90
13684;DHT22;6914;53.552;9.908;2022-10-03T19:40:13;12.40;99.90
13684;DHT22;6914;53.552;9.908;2022-10-03T19:42:45;14.90;99.90
13684;DHT22;6914;53.552;9.908;2022-10-03T19:45:15;12.30;99.90
13684;DHT22;6914;53.552;9.908;2022-10-03T19:47:50;12.30;99.90
13684;DHT22;6914;53.552;9.908;2022-10-03T19:50:20;12.30;99.90
13684;DHT22;6914;53.552;9.908;2022-10-03T19:52:54;12.30;99.90
13684;DHT22;6914;53.552;9.908;2022-10-03T19:55:27;12.30;99.90
13684;DHT22;6914;53.552;9.908;2022-10-03T19:57:57;12.30;99.90
13684;DHT22;6914;53.552;9.908;2022-10-03T20:00:28;12.30;99.90
13684;DHT22;6914;53.552;9.908;2022-10-03T20:03:11;14.20;99.90
13684;DHT22;6914;53.552;9.908;2022-10-03T20:05:45;12.10;99.90
13684;DHT22;6914;53.552;9.908;2022-10-03T20:08:22;12.20;99.90
13684;DHT22;6914;53.552;9.908;2022-10-03T20:11:09;12.10;99.90
13684;DHT22;6914;53.552;9.908;2022-10-03T20:13:48;12.10;99.90
13684;DHT22;6914;53.552;9.908;2022-10-03T20:16:40;12.10;99.90
13684;DHT22;6914;53.552;9.908;2022-10-03T20:19:24;12.10;99.90
13684;DHT22;6914;53.552;9.908;2022-10-03T20:22:10;12.00;99.90
13684;DHT22;6914;53.552;9.908;2022-10-03T20:24:53;11.20;99.90
13684;DHT22;6914;53.552;9.908;2022-10-03T20:27:36;12.10;99.90
13684;DHT22;6914;53.552;9.908;2022-10-03T20:30:22;12.10;99.90
13684;DHT22;6914;53.552;9.908;2022-10-03T20:33:07;11.80;99.90
13684;DHT22;6914;53.552;9.908;2022-10-03T20:35:58;12.60;99.90
13684;DHT22;6914;53.552;9.908;2022-10-03T20:39:03;12.00;99.90
13684;DHT22;6914;53.552;9.908;2022-10-03T20:41:44;12.00;99.90
13684;DHT22;6914;53.552;9.908;2022-10-03T20:44:17;12.70;99.90
13684;DHT22;6914;53.552;9.908;2022-10-03T20:46:58;11.80;99.90
13684;DHT22;6914;53.552;9.908;2022-10-03T20:49:40;15.30;99.90